Time;durP1;ratioP1;P1;durP2;ratioP2;P2;SDS_P1;SDS_P2;PMS_P1;PMS_P2;Temp;Humidity;BMP_temperature;BMP_pressure;BME280_temperature;BME280_humidity;BME280_pressure;Samples;Min_cycle;Max_cycle;Signal;HPM_P1;HPM_P2
2021/11/26 00:01:54;;;;;;;;;;;4.20;99.90;;;;;;5008418;28;19922;-65
2021/11/26 00:04:20;;;;;;;;;;;4.20;99.90;;;;;;5012552;28;19913;-65
2021/11/26 00:06:45;;;;;;;;;;;4.20;99.90;;;;;;4987534;28;19910;-65
2021/11/26 00:09:11;;;;;;;;;;;4.20;99.90;;;;;;4997523;28;19913;-65
2021/11/26 00:11:36;;;;;;;;;;;4.20;99.90;;;;;;5014524;28;19910;-65
2021/11/26 00:14:08;;;;;;;;;;;4.20;99.90;;;;;;5013762;28;19914;-65
2021/11/26 00:16:39;;;;;;;;;;;4.20;99.90;;;;;;5011534;28;20028;-65
2021/11/26 00:19:06;;;;;;;;;;;4.20;99.90;;;;;;5010283;28;20415;-67
2021/11/26 00:21:32;;;;;;;;;;;4.20;99.90;;;;;;5012680;28;20529;-68
2021/11/26 00:23:58;;;;;;;;;;;4.20;99.90;;;;;;5009735;28;19960;-68
2021/11/26 00:26:23;;;;;;;;;;;4.30;99.90;;;;;;5012420;28;19964;-68
2021/11/26 00:28:49;;;;;;;;;;;4.30;99.90;;;;;;5011926;28;20435;-68
2021/11/26 00:31:14;;;;;;;;;;;4.40;99.90;;;;;;5011586;28;19917;-68
2021/11/26 00:33:40;;;;;;;;;;;4.30;99.90;;;;;;5008448;28;19913;-68
2021/11/26 00:36:05;;;;;;;;;;;4.30;99.90;;;;;;5007875;28;19917;-68
2021/11/26 00:38:31;;;;;;;;;;;4.30;99.90;;;;;;5007710;28;20285;-68
2021/11/26 00:40:58;;;;;;;;;;;4.30;99.90;;;;;;5008086;28;21429;-65
2021/11/26 00:43:23;;;;;;;;;;;4.30;99.90;;;;;;5008373;28;19918;-65
2021/11/26 00:45:49;;;;;;;;;;;4.30;99.90;;;;;;5009831;28;21999;-65
2021/11/26 00:48:14;;;;;;;;;;;4.30;99.90;;;;;;5008918;28;19956;-65
2021/11/26 00:50:40;;;;;;;;;;;4.30;99.90;;;;;;5007609;28;19920;-65
2021/11/26 00:53:05;;;;;;;;;;;4.30;99.90;;;;;;5007369;28;20275;-78
2021/11/26 00:55:31;;;;;;;;;;;4.30;99.90;;;;;;5008803;28;20329;-77
2021/11/26 00:57:56;;;;;;;;;;;4.30;99.90;;;;;;5003037;28;19917;-78
2021/11/26 01:00:22;;;;;;;;;;;4.30;99.90;;;;;;4998743;28;19925;-68
2021/11/26 01:02:47;;;;;;;;;;;4.30;99.90;;;;;;5005728;28;19914;-68
2021/11/26 01:05:13;;;;;;;;;;;4.30;99.90;;;;;;5010750;28;19921;-68
2021/11/26 01:07:39;;;;;;;;;;;4.40;99.90;;;;;;5011518;28;19916;-68
2021/11/26 01:10:06;;;;;;;;;;;4.40;99.90;;;;;;5005087;28;19939;-68
2021/11/26 01:12:31;;;;;;;;;;;4.40;99.90;;;;;;5009038;28;19918;-68
2021/11/26 01:14:57;;;;;;;;;;;4.40;99.90;;;;;;5006034;28;20636;-68
2021/11/26 01:17:22;;;;;;;;;;;4.40;99.90;;;;;;5006175;28;19929;-68
2021/11/26 01:19:48;;;;;;;;;;;4.50;99.90;;;;;;5008579;28;19914;-68
2021/11/26 01:22:15;;;;;;;;;;;4.50;99.90;;;;;;5009935;28;19918;-68
2021/11/26 01:24:41;;;;;;;;;;;4.60;99.90;;;;;;5005849;28;19917;-68
2021/11/26 01:27:07;;;;;;;;;;;4.60;99.90;;;;;;5008233;28;20289;-68
2021/11/26 01:29:36;;;;;;;;;;;4.60;99.90;;;;;;5007046;28;19928;-68
2021/11/26 01:32:02;;;;;;;;;;;4.60;99.90;;;;;;5006096;28;20324;-68
2021/11/26 01:34:28;;;;;;;;;;;4.60;99.90;;;;;;5005933;28;19914;-68
2021/11/26 01:36:53;;;;;;;;;;;4.60;99.90;;;;;;4990921;28;19927;-68
2021/11/26 01:39:19;;;;;;;;;;;4.70;99.90;;;;;;5006491;28;20368;-68
2021/11/26 01:41:44;;;;;;;;;;;4.70;99.90;;;;;;5009142;28;19932;-68
2021/11/26 01:44:10;;;;;;;;;;;4.70;99.90;;;;;;5007670;28;19914;-68
2021/11/26 01:46:43;;;;;;;;;;;4.80;99.90;;;;;;5002777;28;19950;-68
2021/11/26 01:49:08;;;;;;;;;;;4.70;99.90;;;;;;4988052;28;19913;-68
2021/11/26 01:51:34;;;;;;;;;;;4.80;99.90;;;;;;5003628;28;20033;-68
2021/11/26 01:53:59;;;;;;;;;;;4.80;99.90;;;;;;5006702;28;19913;-68
2021/11/26 01:56:25;;;;;;;;;;;4.80;99.90;;;;;;5007612;28;19920;-68
2021/11/26 01:58:51;;;;;;;;;;;4.80;99.90;;;;;;5006727;28;20109;-68
2021/11/26 02:01:17;;;;;;;;;;;4.80;99.90;;;;;;5005195;28;19918;-68
2021/11/26 02:03:42;;;;;;;;;;;4.80;99.90;;;;;;5006320;28;20377;-68
2021/11/26 02:06:07;;;;;;;;;;;4.80;99.90;;;;;;5006850;28;20415;-65
2021/11/26 02:08:33;;;;;;;;;;;4.80;99.90;;;;;;5007612;28;19923;-65
2021/11/26 02:10:58;;;;;;;;;;;4.80;99.90;;;;;;4988570;28;19917;-64
2021/11/26 02:13:24;;;;;;;;;;;4.80;99.90;;;;;;5005299;28;19968;-65
2021/11/26 02:15:52;;;;;;;;;;;4.80;99.90;;;;;;5006112;28;19921;-65
2021/11/26 02:18:17;;;;;;;;;;;4.80;99.90;;;;;;4990781;28;20499;-65
2021/11/26 02:20:43;;;;;;;;;;;4.80;99.90;;;;;;5006223;28;20004;-65
2021/11/26 02:23:08;;;;;;;;;;;4.80;99.90;;;;;;5006100;28;19943;-65
2021/11/26 02:25:34;;;;;;;;;;;4.90;99.90;;;;;;5004707;28;19964;-79
2021/11/26 02:28:01;;;;;;;;;;;4.90;99.90;;;;;;4988005;28;20265;-79
2021/11/26 02:30:27;;;;;;;;;;;4.90;99.90;;;;;;5004980;28;20461;-79
2021/11/26 02:32:58;;;;;;;;;;;4.90;99.90;;;;;;5009144;28;20020;-78
2021/11/26 02:35:23;;;;;;;;;;;4.90;99.90;;;;;;5006940;28;19920;-79
2021/11/26 02:37:49;;;;;;;;;;;4.90;99.90;;;;;;5007505;28;19921;-68
2021/11/26 02:40:16;;;;;;;;;;;4.80;99.90;;;;;;5005944;28;19913;-68
2021/11/26 02:42:42;;;;;;;;;;;4.90;99.90;;;;;;5000783;28;20321;-68
2021/11/26 02:45:09;;;;;;;;;;;4.80;99.90;;;;;;5006796;28;19913;-68
2021/11/26 02:47:35;;;;;;;;;;;4.80;99.90;;;;;;5005821;28;20324;-68
2021/11/26 02:50:03;;;;;;;;;;;4.80;99.90;;;;;;5007304;28;20462;-78
2021/11/26 02:52:29;;;;;;;;;;;4.80;99.90;;;;;;4999896;28;19914;-78
2021/11/26 02:54:55;;;;;;;;;;;4.80;99.90;;;;;;5007772;28;19925;-79
2021/11/26 02:57:20;;;;;;;;;;;4.80;99.90;;;;;;5006905;28;19922;-79
2021/11/26 02:59:46;;;;;;;;;;;4.80;99.90;;;;;;4989702;28;20010;-68
2021/11/26 03:02:11;;;;;;;;;;;4.80;99.90;;;;;;5007034;28;19929;-67
2021/11/26 03:04:37;;;;;;;;;;;4.80;99.90;;;;;;5004162;28;19939;-67
2021/11/26 03:07:04;;;;;;;;;;;4.80;99.90;;;;;;5005303;28;20406;-67
2021/11/26 03:09:29;;;;;;;;;;;4.70;99.90;;;;;;5006703;28;20004;-68
2021/11/26 03:11:55;;;;;;;;;;;4.70;99.90;;;;;;5005002;28;20045;-68
2021/11/26 03:14:20;;;;;;;;;;;4.70;99.90;;;;;;5004052;28;20300;-68
2021/11/26 03:16:45;;;;;;;;;;;4.70;99.90;;;;;;5005944;28;20024;-68
2021/11/26 03:19:11;;;;;;;;;;;4.70;99.90;;;;;;4987588;28;19930;-68
2021/11/26 03:21:36;;;;;;;;;;;4.70;99.90;;;;;;5004411;28;19921;-68
2021/11/26 03:24:02;;;;;;;;;;;4.70;99.90;;;;;;5006876;28;19921;-68
2021/11/26 03:26:27;;;;;;;;;;;4.70;99.90;;;;;;5005564;28;19937;-67
2021/11/26 03:28:53;;;;;;;;;;;4.70;99.90;;;;;;5001961;28;19925;-68
2021/11/26 03:31:18;;;;;;;;;;;4.70;99.90;;;;;;5006255;28;19920;-68
2021/11/26 03:33:43;;;;;;;;;;;4.80;99.90;;;;;;5006071;28;19917;-68
2021/11/26 03:36:09;;;;;;;;;;;4.70;99.90;;;;;;5006057;28;20527;-68
2021/11/26 03:38:34;;;;;;;;;;;4.70;99.90;;;;;;5006858;28;19929;-68
2021/11/26 03:41:00;;;;;;;;;;;4.80;99.90;;;;;;5005646;28;19923;-79
2021/11/26 03:43:25;;;;;;;;;;;4.80;99.90;;;;;;5001353;28;19945;-78
2021/11/26 03:45:51;;;;;;;;;;;4.80;99.90;;;;;;5000786;28;19921;-78
2021/11/26 03:48:16;;;;;;;;;;;4.80;99.90;;;;;;4994887;28;19917;-79
2021/11/26 03:50:42;;;;;;;;;;;4.80;99.90;;;;;;5003378;28;19963;-79
2021/11/26 03:53:07;;;;;;;;;;;4.80;99.90;;;;;;4998573;28;19918;-79
2021/11/26 03:55:32;;;;;;;;;;;4.80;99.90;;;;;;4986330;28;20049;-78
2021/11/26 03:57:59;;;;;;;;;;;4.80;99.90;;;;;;4991574;28;19922;-79
2021/11/26 04:00:24;;;;;;;;;;;4.80;99.90;;;;;;4968493;28;20343;-79
2021/11/26 04:02:50;;;;;;;;;;;4.80;99.90;;;;;;4983998;28;19985;-79
2021/11/26 04:05:15;;;;;;;;;;;4.80;99.90;;;;;;5004042;28;19910;-79
2021/11/26 04:07:41;;;;;;;;;;;4.80;99.90;;;;;;4987783;28;19910;-79
2021/11/26 04:10:08;;;;;;;;;;;4.70;99.90;;;;;;4988972;28;19910;-79
2021/11/26 04:12:34;;;;;;;;;;;4.70;99.90;;;;;;4978385;28;20323;-77
2021/11/26 04:15:00;;;;;;;;;;;4.70;99.90;;;;;;5007401;28;19926;-79
2021/11/26 04:17:25;;;;;;;;;;;4.70;99.90;;;;;;5006213;28;19925;-68
2021/11/26 04:19:51;;;;;;;;;;;4.70;99.90;;;;;;5010554;28;20557;-68
2021/11/26 04:22:16;;;;;;;;;;;4.70;99.90;;;;;;5008966;28;20401;-68
2021/11/26 04:24:42;;;;;;;;;;;4.70;99.90;;;;;;5008366;28;20585;-68
2021/11/26 04:27:07;;;;;;;;;;;4.70;99.90;;;;;;5007085;28;19976;-68
2021/11/26 04:29:33;;;;;;;;;;;4.70;99.90;;;;;;4993150;28;20004;-68
2021/11/26 04:31:58;;;;;;;;;;;4.70;99.90;;;;;;5006698;28;20005;-65
2021/11/26 04:34:24;;;;;;;;;;;4.60;99.90;;;;;;5009191;28;19917;-68
2021/11/26 04:36:49;;;;;;;;;;;4.60;99.90;;;;;;5006280;28;20210;-69
2021/11/26 04:39:14;;;;;;;;;;;4.70;99.90;;;;;;5008079;28;19941;-69
2021/11/26 04:41:40;;;;;;;;;;;4.70;99.90;;;;;;5008875;28;20428;-68
2021/11/26 04:44:05;;;;;;;;;;;4.70;99.90;;;;;;5008599;28;19936;-68
2021/11/26 04:46:31;;;;;;;;;;;4.70;99.90;;;;;;5009087;28;19964;-68
2021/11/26 04:48:56;;;;;;;;;;;4.70;99.90;;;;;;5007096;28;19960;-68
2021/11/26 04:51:22;;;;;;;;;;;4.70;99.90;;;;;;5009592;28;19922;-68
2021/11/26 04:53:47;;;;;;;;;;;4.70;99.90;;;;;;5008694;28;20012;-69
2021/11/26 04:56:13;;;;;;;;;;;4.60;99.90;;;;;;5008433;28;19943;-69
2021/11/26 04:58:38;;;;;;;;;;;4.70;99.90;;;;;;4988267;28;20376;-69
2021/11/26 05:01:04;;;;;;;;;;;4.60;99.90;;;;;;5006270;28;20804;-69
2021/11/26 05:03:30;;;;;;;;;;;4.60;99.90;;;;;;5008214;28;19920;-69
2021/11/26 05:05:56;;;;;;;;;;;4.60;99.90;;;;;;5008873;28;19917;-68
2021/11/26 05:08:22;;;;;;;;;;;4.60;99.90;;;;;;5011005;28;19913;-69
2021/11/26 05:10:52;;;;;;;;;;;4.60;99.90;;;;;;5009623;28;19913;-69
2021/11/26 05:13:22;;;;;;;;;;;4.50;99.90;;;;;;5010185;28;19917;-69
2021/11/26 05:15:48;;;;;;;;;;;4.60;99.90;;;;;;5009937;28;20424;-69
2021/11/26 05:18:13;;;;;;;;;;;4.60;99.90;;;;;;5010395;28;19949;-70
2021/11/26 05:20:39;;;;;;;;;;;4.50;99.90;;;;;;5004027;28;19918;-68
2021/11/26 05:23:05;;;;;;;;;;;4.50;99.90;;;;;;5003709;28;20012;-68
2021/11/26 05:25:31;;;;;;;;;;;4.50;99.90;;;;;;5009263;28;20368;-69
2021/11/26 05:27:56;;;;;;;;;;;4.50;99.90;;;;;;5004847;28;19917;-69
2021/11/26 05:30:22;;;;;;;;;;;4.50;99.90;;;;;;5002687;28;19917;-69
2021/11/26 05:32:49;;;;;;;;;;;4.50;99.90;;;;;;5006915;28;20347;-69
2021/11/26 05:35:15;;;;;;;;;;;4.50;99.90;;;;;;5004607;28;19920;-68
2021/11/26 05:37:41;;;;;;;;;;;4.50;99.90;;;;;;5003776;28;19913;-69
2021/11/26 05:40:08;;;;;;;;;;;4.50;99.90;;;;;;5005464;28;19917;-69
2021/11/26 05:42:34;;;;;;;;;;;4.50;99.90;;;;;;5009090;28;19913;-69
2021/11/26 05:45:00;;;;;;;;;;;4.50;99.90;;;;;;5004901;28;20433;-69
2021/11/26 05:47:26;;;;;;;;;;;4.50;99.90;;;;;;5008394;28;20008;-70
2021/11/26 05:49:51;;;;;;;;;;;4.50;99.90;;;;;;5000637;28;20488;-70
2021/11/26 05:52:17;;;;;;;;;;;4.50;99.90;;;;;;4998604;28;19914;-72
2021/11/26 05:54:42;;;;;;;;;;;4.50;99.90;;;;;;5002982;28;19921;-70
2021/11/26 05:57:08;;;;;;;;;;;4.50;99.90;;;;;;5004024;28;20415;-70
2021/11/26 05:59:33;;;;;;;;;;;4.50;99.90;;;;;;5006209;28;19913;-70
2021/11/26 06:01:59;;;;;;;;;;;4.50;99.90;;;;;;4988690;28;20039;-70
2021/11/26 06:04:28;;;;;;;;;;;4.40;99.90;;;;;;5009096;28;19916;-70
2021/11/26 06:06:54;;;;;;;;;;;4.40;99.90;;;;;;5008683;28;19913;-69
2021/11/26 06:09:19;;;;;;;;;;;4.50;99.90;;;;;;5006548;28;20300;-70
2021/11/26 06:11:45;;;;;;;;;;;4.50;99.90;;;;;;5005869;28;20277;-70
2021/11/26 06:14:10;;;;;;;;;;;4.50;99.90;;;;;;5008260;28;19983;-70
2021/11/26 06:16:35;;;;;;;;;;;4.40;99.90;;;;;;5003781;28;19929;-67
2021/11/26 06:19:01;;;;;;;;;;;4.50;99.90;;;;;;5002186;28;20016;-69
2021/11/26 06:21:26;;;;;;;;;;;4.50;99.90;;;;;;5002269;28;19948;-69
2021/11/26 06:23:52;;;;;;;;;;;4.50;99.90;;;;;;4998794;28;19922;-71
2021/11/26 06:26:17;;;;;;;;;;;4.50;99.90;;;;;;5007453;28;19972;-71
2021/11/26 06:28:44;;;;;;;;;;;4.50;99.90;;;;;;4987645;28;19964;-71
2021/11/26 06:31:10;;;;;;;;;;;4.50;99.90;;;;;;4989692;28;19968;-70
2021/11/26 06:33:35;;;;;;;;;;;4.50;99.90;;;;;;5006616;28;20281;-70
2021/11/26 06:36:00;;;;;;;;;;;4.60;99.90;;;;;;5008302;28;20348;-71
2021/11/26 06:38:26;;;;;;;;;;;4.60;99.90;;;;;;5007806;28;20020;-71
2021/11/26 06:40:51;;;;;;;;;;;4.60;99.90;;;;;;5006675;28;19925;-71
2021/11/26 06:43:17;;;;;;;;;;;4.60;99.90;;;;;;5006326;28;19960;-70
2021/11/26 06:45:43;;;;;;;;;;;4.60;99.90;;;;;;5008411;28;19975;-71
2021/11/26 06:48:09;;;;;;;;;;;4.60;99.90;;;;;;5009073;28;19917;-70
2021/11/26 06:50:35;;;;;;;;;;;4.60;99.90;;;;;;5007746;28;19964;-70
2021/11/26 06:53:03;;;;;;;;;;;4.60;99.90;;;;;;5007839;28;19917;-70
2021/11/26 06:55:28;;;;;;;;;;;4.60;99.90;;;;;;5005983;28;20384;-70
2021/11/26 06:57:54;;;;;;;;;;;4.60;99.90;;;;;;5007942;28;19924;-71
2021/11/26 07:00:20;;;;;;;;;;;4.60;99.90;;;;;;5017413;22;19933;-64
2021/11/26 07:02:45;;;;;;;;;;;4.70;99.90;;;;;;5012404;28;20496;-64
2021/11/26 07:05:11;;;;;;;;;;;5.40;99.90;;;;;;5016668;28;19964;-64
2021/11/26 07:07:37;;;;;;;;;;;5.60;99.90;;;;;;5016048;28;20228;-64
2021/11/26 07:10:04;;;;;;;;;;;5.50;99.90;;;;;;5018377;28;20044;-64
2021/11/26 07:12:30;;;;;;;;;;;5.30;99.90;;;;;;5017029;28;20448;-64
2021/11/26 07:14:56;;;;;;;;;;;5.10;99.90;;;;;;5020645;28;19926;-66
2021/11/26 07:17:21;;;;;;;;;;;5.00;99.90;;;;;;5017871;28;19948;-65
2021/11/26 07:19:49;;;;;;;;;;;5.00;99.90;;;;;;5022981;28;19917;-65
2021/11/26 07:22:14;;;;;;;;;;;5.00;99.90;;;;;;5020883;28;19913;-66
2021/11/26 07:24:39;;;;;;;;;;;4.90;99.90;;;;;;5022333;28;19940;-65
2021/11/26 07:27:05;;;;;;;;;;;4.90;99.90;;;;;;5022583;28;19917;-65
2021/11/26 07:29:31;;;;;;;;;;;4.90;99.90;;;;;;5018224;28;20336;-65
2021/11/26 07:31:56;;;;;;;;;;;4.90;99.90;;;;;;5022948;28;20285;-65
2021/11/26 07:34:22;;;;;;;;;;;4.90;99.90;;;;;;5021860;28;19921;-65
2021/11/26 07:36:47;;;;;;;;;;;4.90;99.90;;;;;;5019095;28;19979;-65
2021/11/26 07:39:13;;;;;;;;;;;5.00;99.90;;;;;;5022944;28;19964;-64
2021/11/26 07:41:39;;;;;;;;;;;5.00;99.90;;;;;;5022018;28;19913;-64
2021/11/26 07:44:05;;;;;;;;;;;5.00;99.90;;;;;;5023118;28;20348;-65
2021/11/26 07:46:31;;;;;;;;;;;5.00;99.90;;;;;;5025034;28;19923;-65
2021/11/26 07:48:56;;;;;;;;;;;5.10;99.90;;;;;;5024893;28;19917;-65
2021/11/26 07:51:23;;;;;;;;;;;5.00;99.90;;;;;;5023174;28;19979;-64
2021/11/26 07:53:48;;;;;;;;;;;5.00;99.90;;;;;;5026404;28;19951;-65
2021/11/26 07:56:14;;;;;;;;;;;5.00;99.90;;;;;;5026012;28;19964;-65
2021/11/26 07:58:39;;;;;;;;;;;5.00;99.90;;;;;;5010831;28;19917;-64
2021/11/26 08:01:04;;;;;;;;;;;5.00;99.90;;;;;;5021653;28;19952;-65
2021/11/26 08:03:30;;;;;;;;;;;5.10;99.90;;;;;;5028762;28;19917;-65
2021/11/26 08:05:56;;;;;;;;;;;5.10;99.90;;;;;;5024524;28;19925;-65
2021/11/26 08:08:21;;;;;;;;;;;5.10;99.90;;;;;;5023928;28;19914;-65
2021/11/26 08:10:47;;;;;;;;;;;5.20;99.90;;;;;;5028382;28;19923;-66
2021/11/26 08:13:12;;;;;;;;;;;5.20;99.90;;;;;;5026264;28;20427;-67
2021/11/26 08:15:38;;;;;;;;;;;5.20;99.90;;;;;;5009564;28;19959;-66
2021/11/26 08:18:05;;;;;;;;;;;5.20;99.90;;;;;;5027220;28;20277;-65
2021/11/26 08:20:30;;;;;;;;;;;5.20;99.90;;;;;;5024747;28;19947;-65
2021/11/26 08:22:56;;;;;;;;;;;5.20;99.90;;;;;;5026405;28;19921;-65
2021/11/26 08:25:23;;;;;;;;;;;5.30;99.90;;;;;;5022809;28;20393;-65
2021/11/26 08:27:49;;;;;;;;;;;5.30;99.90;;;;;;5024343;28;20358;-65
2021/11/26 08:30:15;;;;;;;;;;;5.40;99.90;;;;;;5027230;28;19917;-64
2021/11/26 08:32:41;;;;;;;;;;;5.40;99.90;;;;;;5028188;28;19959;-65
2021/11/26 08:35:07;;;;;;;;;;;5.40;99.90;;;;;;5007646;28;20000;-64
2021/11/26 08:37:32;;;;;;;;;;;5.30;99.90;;;;;;5027468;28;20336;-64
2021/11/26 08:39:58;;;;;;;;;;;5.40;99.90;;;;;;5025453;28;20359;-65
2021/11/26 08:42:26;;;;;;;;;;;5.40;99.90;;;;;;5025914;28;20362;-65
2021/11/26 08:44:53;;;;;;;;;;;5.50;99.90;;;;;;5026744;28;20435;-64
2021/11/26 08:47:18;;;;;;;;;;;5.50;99.90;;;;;;5026169;28;20425;-65
2021/11/26 08:49:44;;;;;;;;;;;5.50;99.90;;;;;;5021931;28;19996;-64
2021/11/26 08:52:12;;;;;;;;;;;5.50;99.90;;;;;;5028066;28;19992;-65
2021/11/26 08:54:37;;;;;;;;;;;5.60;99.90;;;;;;5025884;28;19918;-65
2021/11/26 08:57:03;;;;;;;;;;;5.50;99.90;;;;;;5024761;28;19928;-64
2021/11/26 08:59:28;;;;;;;;;;;5.50;99.90;;;;;;5024189;28;19921;-65
2021/11/26 09:01:54;;;;;;;;;;;5.60;99.90;;;;;;5026778;28;20408;-66
2021/11/26 09:04:20;;;;;;;;;;;5.60;99.90;;;;;;5026806;28;19920;-66
2021/11/26 09:06:46;;;;;;;;;;;5.60;99.90;;;;;;5026195;28;20347;-65
2021/11/26 09:09:11;;;;;;;;;;;5.60;99.90;;;;;;5027275;28;19921;-65
2021/11/26 09:11:37;;;;;;;;;;;5.60;99.90;;;;;;5025756;28;19913;-65
2021/11/26 09:14:05;;;;;;;;;;;5.60;99.90;;;;;;5023655;28;19963;-66
2021/11/26 09:16:31;;;;;;;;;;;5.60;99.90;;;;;;5007031;28;19921;-65
2021/11/26 09:18:56;;;;;;;;;;;5.70;99.90;;;;;;5023996;28;19921;-66
2021/11/26 09:21:22;;;;;;;;;;;5.70;99.90;;;;;;5026723;28;20503;-65
2021/11/26 09:23:49;;;;;;;;;;;5.80;99.90;;;;;;5025968;28;19917;-66
2021/11/26 09:26:14;;;;;;;;;;;5.80;99.90;;;;;;5027137;28;20321;-67
2021/11/26 09:28:40;;;;;;;;;;;5.90;99.90;;;;;;5023488;28;19917;-66
2021/11/26 09:31:05;;;;;;;;;;;5.90;99.90;;;;;;5025537;28;20062;-66
2021/11/26 09:33:35;;;;;;;;;;;5.90;99.90;;;;;;5020929;28;19998;-66
2021/11/26 09:36:05;;;;;;;;;;;6.00;99.90;;;;;;5026271;28;19921;-66
2021/11/26 09:38:31;;;;;;;;;;;6.00;99.90;;;;;;5026374;28;20398;-65
2021/11/26 09:40:57;;;;;;;;;;;6.10;99.90;;;;;;5022165;28;19967;-65
2021/11/26 09:43:22;;;;;;;;;;;6.00;99.90;;;;;;5004934;28;19916;-66
2021/11/26 09:45:48;;;;;;;;;;;6.10;99.90;;;;;;5023892;28;19959;-65
2021/11/26 09:48:13;;;;;;;;;;;6.00;99.70;;;;;;5007314;28;19917;-66
2021/11/26 09:50:39;;;;;;;;;;;6.10;99.80;;;;;;5022882;28;19913;-65
2021/11/26 09:53:09;;;;;;;;;;;6.10;99.70;;;;;;5022740;28;19940;-65
2021/11/26 09:55:35;;;;;;;;;;;6.10;99.50;;;;;;5007535;28;19917;-66
2021/11/26 09:58:00;;;;;;;;;;;6.20;99.50;;;;;;5023449;28;20094;-66
2021/11/26 10:00:26;;;;;;;;;;;6.20;99.60;;;;;;5022304;28;19917;-64
2021/11/26 10:02:55;;;;;;;;;;;6.20;99.60;;;;;;5025242;28;19920;-67
2021/11/26 10:05:21;;;;;;;;;;;6.20;99.30;;;;;;5024126;28;19917;-66
2021/11/26 10:07:48;;;;;;;;;;;6.20;99.30;;;;;;5024199;28;19913;-65
2021/11/26 10:10:14;;;;;;;;;;;6.20;99.20;;;;;;5023378;28;20301;-66
2021/11/26 10:12:40;;;;;;;;;;;6.20;99.40;;;;;;5020813;28;19944;-67
2021/11/26 10:15:06;;;;;;;;;;;6.30;99.50;;;;;;5023910;28;19913;-66
2021/11/26 10:17:32;;;;;;;;;;;6.30;99.30;;;;;;5022360;28;19924;-65
2021/11/26 10:20:01;;;;;;;;;;;6.40;99.40;;;;;;5023631;28;19913;-66
2021/11/26 10:22:32;;;;;;;;;;;6.40;99.20;;;;;;5021251;28;20405;-65
2021/11/26 10:24:58;;;;;;;;;;;6.40;99.20;;;;;;5022135;28;20251;-66
2021/11/26 10:27:42;;;;;;;;;;;6.40;99.30;;;;;;5023114;28;19921;-66
2021/11/26 10:30:09;;;;;;;;;;;6.50;99.30;;;;;;5019837;28;19920;-66
2021/11/26 10:32:34;;;;;;;;;;;6.50;99.20;;;;;;5023911;28;19943;-63
2021/11/26 10:35:00;;;;;;;;;;;6.50;99.20;;;;;;5022354;28;19916;-65
2021/11/26 10:37:27;;;;;;;;;;;6.50;99.20;;;;;;5026052;28;19927;-66
2021/11/26 10:39:53;;;;;;;;;;;6.50;99.10;;;;;;5023978;28;19975;-66
2021/11/26 10:42:25;;;;;;;;;;;6.50;99.00;;;;;;5005184;28;20192;-65
2021/11/26 10:45:05;;;;;;;;;;;6.40;99.10;;;;;;5022389;28;21235;-65
2021/11/26 10:47:48;;;;;;;;;;;6.40;99.40;;;;;;5024866;28;19913;-66
2021/11/26 10:56:46;;;;;;;;;;;6.30;99.70;;;;;;5023475;28;20353;-67
2021/11/26 10:58:49;;;;;;;;;;;6.20;99.80;;;;;;5024181;28;20435;-65
2021/11/26 11:01:14;;;;;;;;;;;6.10;99.90;;;;;;5022472;28;20254;-66
2021/11/26 11:03:41;;;;;;;;;;;6.00;99.90;;;;;;5023357;28;19918;-66
2021/11/26 11:06:24;;;;;;;;;;;6.00;99.90;;;;;;5006739;28;20020;-66
2021/11/26 11:08:59;;;;;;;;;;;6.00;99.90;;;;;;5023702;28;19913;-65
2021/11/26 11:11:25;;;;;;;;;;;6.00;99.90;;;;;;5025757;28;19939;-65
2021/11/26 11:13:50;;;;;;;;;;;5.90;99.90;;;;;;5023282;28;20003;-65
2021/11/26 11:16:16;;;;;;;;;;;5.90;99.90;;;;;;5021502;28;20313;-67
2021/11/26 11:18:41;;;;;;;;;;;5.80;99.90;;;;;;5022954;28;20187;-66
2021/11/26 11:21:08;;;;;;;;;;;5.90;99.90;;;;;;5005615;28;20000;-66
2021/11/26 11:23:34;;;;;;;;;;;5.90;99.90;;;;;;5024596;28;20128;-65
2021/11/26 11:26:00;;;;;;;;;;;5.80;99.90;;;;;;5023491;28;19921;-66
2021/11/26 11:28:25;;;;;;;;;;;5.90;99.90;;;;;;5024962;28;19909;-66
2021/11/26 11:30:51;;;;;;;;;;;5.90;99.90;;;;;;5025258;28;19931;-66
2021/11/26 11:33:17;;;;;;;;;;;5.90;99.90;;;;;;5023723;28;19913;-66
2021/11/26 11:35:46;;;;;;;;;;;5.90;99.90;;;;;;5024715;28;20406;-65
2021/11/26 11:38:12;;;;;;;;;;;5.80;99.90;;;;;;5008268;28;19917;-65
2021/11/26 11:40:40;;;;;;;;;;;5.80;99.90;;;;;;5025359;28;19913;-67
2021/11/26 11:43:08;;;;;;;;;;;5.80;99.90;;;;;;5016752;28;19913;-67
2021/11/26 11:45:34;;;;;;;;;;;5.80;99.90;;;;;;5023462;28;19920;-66
2021/11/26 11:48:03;;;;;;;;;;;5.80;99.90;;;;;;5025480;28;20000;-66
2021/11/26 11:50:31;;;;;;;;;;;5.90;99.90;;;;;;5021240;28;19975;-65
2021/11/26 11:52:58;;;;;;;;;;;5.80;99.90;;;;;;5025416;28;19967;-65
2021/11/26 11:55:24;;;;;;;;;;;5.80;99.90;;;;;;5024568;28;19922;-65
2021/11/26 11:57:52;;;;;;;;;;;5.80;99.90;;;;;;5025265;28;20557;-65
2021/11/26 12:00:18;;;;;;;;;;;5.80;99.90;;;;;;5007673;28;20341;-65
2021/11/26 12:02:45;;;;;;;;;;;5.80;99.90;;;;;;5023527;28;19917;-65
2021/11/26 12:05:24;;;;;;;;;;;5.80;99.90;;;;;;5021232;28;19913;-67
2021/11/26 12:07:50;;;;;;;;;;;5.80;99.90;;;;;;5023912;28;19909;-67
2021/11/26 12:10:16;;;;;;;;;;;5.80;99.90;;;;;;5024682;28;19927;-67
2021/11/26 12:12:46;;;;;;;;;;;5.70;99.90;;;;;;5025422;28;20267;-67
2021/11/26 12:15:21;;;;;;;;;;;5.70;99.90;;;;;;5024336;28;19975;-67
2021/11/26 12:17:54;;;;;;;;;;;5.80;99.90;;;;;;5025317;28;20014;-67
2021/11/26 12:20:21;;;;;;;;;;;5.80;99.90;;;;;;5025498;28;19913;-66
2021/11/26 12:22:52;;;;;;;;;;;5.70;99.90;;;;;;5023367;28;19975;-67
2021/11/26 12:25:27;;;;;;;;;;;5.70;99.90;;;;;;5005991;28;19988;-66
2021/11/26 12:28:01;;;;;;;;;;;5.60;99.90;;;;;;5025576;28;20318;-66
2021/11/26 12:30:27;;;;;;;;;;;5.70;99.90;;;;;;5023802;28;20307;-65
2021/11/26 12:32:53;;;;;;;;;;;5.70;99.90;;;;;;5028001;28;19994;-67
2021/11/26 12:35:18;;;;;;;;;;;5.60;99.90;;;;;;5028094;28;19949;-65
2021/11/26 12:37:45;;;;;;;;;;;5.60;99.90;;;;;;5029733;28;19913;-67
2021/11/26 12:40:12;;;;;;;;;;;5.60;99.90;;;;;;5022671;28;19917;-64
2021/11/26 12:42:38;;;;;;;;;;;5.60;99.90;;;;;;5029407;28;20059;-66
2021/11/26 12:45:07;;;;;;;;;;;5.60;99.90;;;;;;5025934;28;20010;-66
2021/11/26 12:47:40;;;;;;;;;;;5.60;99.90;;;;;;5029674;28;19968;-66
2021/11/26 12:53:02;;;;;;;;;;;5.60;99.90;;;;;;5028838;28;19967;-66
2021/11/26 12:55:28;;;;;;;;;;;5.50;99.90;;;;;;5028053;28;20055;-67
2021/11/26 12:57:54;;;;;;;;;;;5.50;99.90;;;;;;5026095;28;20011;-66
2021/11/26 13:00:20;;;;;;;;;;;5.50;99.90;;;;;;5041314;22;19951;-61
2021/11/26 13:02:45;;;;;;;;;;;5.50;99.90;;;;;;5026288;28;19917;-60
2021/11/26 13:05:12;;;;;;;;;;;5.40;99.90;;;;;;5027282;28;19917;-61
2021/11/26 13:07:39;;;;;;;;;;;5.40;99.90;;;;;;5008526;28;19913;-61
2021/11/26 13:10:05;;;;;;;;;;;5.40;99.90;;;;;;5027073;28;19909;-61
2021/11/26 13:12:32;;;;;;;;;;;5.40;99.90;;;;;;5007423;28;19924;-61
2021/11/26 13:14:59;;;;;;;;;;;5.40;99.90;;;;;;5027250;28;19917;-61
2021/11/26 13:17:33;;;;;;;;;;;5.40;99.90;;;;;;5026863;28;20412;-60
2021/11/26 13:20:04;;;;;;;;;;;5.40;99.90;;;;;;5026041;28;19913;-61
2021/11/26 13:22:37;;;;;;;;;;;5.40;99.90;;;;;;5026169;28;19936;-61
2021/11/26 13:25:03;;;;;;;;;;;5.40;99.90;;;;;;5027962;28;20126;-61
2021/11/26 13:27:28;;;;;;;;;;;5.40;99.90;;;;;;5024889;28;20373;-59
2021/11/26 13:29:54;;;;;;;;;;;5.30;99.90;;;;;;5025565;28;20320;-62
2021/11/26 13:32:19;;;;;;;;;;;5.40;99.90;;;;;;5027163;28;20388;-63
2021/11/26 13:34:55;;;;;;;;;;;5.40;99.90;;;;;;5026463;28;19917;-64
2021/11/26 13:37:21;;;;;;;;;;;5.40;99.90;;;;;;5008660;28;20337;-61
2021/11/26 13:39:57;;;;;;;;;;;5.40;99.90;;;;;;5027846;28;19913;-60
2021/11/26 13:42:22;;;;;;;;;;;5.30;99.90;;;;;;5026681;28;20358;-61
2021/11/26 13:44:48;;;;;;;;;;;5.30;99.90;;;;;;5008122;28;20096;-61
2021/11/26 13:47:14;;;;;;;;;;;5.30;99.90;;;;;;5027560;28;19913;-61
2021/11/26 13:49:40;;;;;;;;;;;5.30;99.90;;;;;;5027485;28;19959;-61
2021/11/26 13:52:06;;;;;;;;;;;5.20;99.90;;;;;;5027049;28;20370;-61
2021/11/26 13:54:33;;;;;;;;;;;5.20;99.90;;;;;;5027138;28;19909;-61
2021/11/26 13:56:59;;;;;;;;;;;5.20;99.90;;;;;;5026853;28;19913;-62
2021/11/26 13:59:26;;;;;;;;;;;5.10;99.90;;;;;;5028054;28;19916;-63
2021/11/26 14:02:03;;;;;;;;;;;5.20;99.90;;;;;;5024087;28;19936;-62
2021/11/26 14:04:28;;;;;;;;;;;5.20;99.90;;;;;;5025691;28;19927;-62
2021/11/26 14:06:58;;;;;;;;;;;5.20;99.90;;;;;;5027430;28;19999;-57
2021/11/26 14:09:24;;;;;;;;;;;5.50;99.90;;;;;;5027446;28;19924;-61
2021/11/26 14:11:50;;;;;;;;;;;6.10;99.90;;;;;;5027179;28;19984;-59
2021/11/26 14:14:17;;;;;;;;;;;6.30;99.90;;;;;;5027932;28;19960;-61
2021/11/26 14:16:47;;;;;;;;;;;6.50;99.90;;;;;;5025400;28;20253;-59
2021/11/26 14:19:15;;;;;;;;;;;6.40;99.90;;;;;;5026733;28;20294;-58
2021/11/26 14:21:51;;;;;;;;;;;6.20;99.90;;;;;;5027384;28;19909;-59
2021/11/26 14:24:16;;;;;;;;;;;5.90;99.90;;;;;;5027615;28;19913;-58
2021/11/26 14:26:48;;;;;;;;;;;5.70;99.90;;;;;;5027268;28;20366;-59
2021/11/26 14:29:13;;;;;;;;;;;5.50;99.90;;;;;;5027781;28;19921;-56
2021/11/26 14:31:40;;;;;;;;;;;5.40;99.90;;;;;;5025063;28;19913;-59
2021/11/26 14:34:07;;;;;;;;;;;5.40;99.90;;;;;;5025301;28;19924;-59
2021/11/26 14:36:32;;;;;;;;;;;5.30;99.90;;;;;;5026635;28;19913;-57